Time;durP1;ratioP1;P1;durP2;ratioP2;P2;SDS_P1;SDS_P2;PMS_P1;PMS_P2;Temp;Humidity;BMP_temperature;BMP_pressure;BME280_temperature;BME280_humidity;BME280_pressure;Samples;Min_cycle;Max_cycle;Signal;HPM_P1;HPM_P2
2022/04/28 00:00:55;;;;;;;10.00;7.63;;;;;;;7.34;64.11;100909.91;10321890;28;20102;-80
2022/04/28 00:05:58;;;;;;;10.50;8.73;;;;;;;7.35;63.83;100904.63;10320794;28;20452;-80
2022/04/28 00:10:59;;;;;;;10.43;9.18;;;;;;;7.26;63.90;100910.16;10329555;28;20108;-80
2022/04/28 00:16:01;;;;;;;9.40;7.63;;;;;;;7.24;63.78;100911.09;10323411;28;20050;-80
2022/04/28 00:21:03;;;;;;;11.27;7.75;;;;;;;7.19;63.92;100921.63;10318357;28;20057;-80
2022/04/28 00:26:05;;;;;;;11.13;8.40;;;;;;;7.14;63.85;100915.72;10330143;28;20806;-80
2022/04/28 00:31:06;;;;;;;11.23;7.68;;;;;;;7.06;64.03;100918.53;10325502;28;20107;-80
2022/04/28 00:36:09;;;;;;;12.88;9.05;;;;;;;6.99;64.03;100919.63;10327478;28;20058;-80
2022/04/28 00:41:11;;;;;;;25.05;11.13;;;;;;;6.85;64.31;100918.31;10312887;28;20168;-80
2022/04/28 00:46:13;;;;;;;17.80;10.13;;;;;;;6.82;64.21;100915.78;10336076;28;20089;-80
2022/04/28 00:51:15;;;;;;;13.07;9.60;;;;;;;6.75;64.38;100915.13;10350609;28;20530;-80
2022/04/28 00:56:17;;;;;;;14.57;10.82;;;;;;;6.69;64.54;100919.66;10346791;28;20104;-80
2022/04/28 01:01:19;;;;;;;22.17;11.48;;;;;;;6.60;64.66;100925.97;10335320;28;20120;-80
2022/04/28 01:06:22;;;;;;;24.80;11.20;;;;;;;6.53;64.79;100926.19;10322177;28;20054;-80
2022/04/28 01:11:25;;;;;;;84.47;14.13;;;;;;;6.41;65.22;100921.31;10325769;28;20085;-80
2022/04/28 01:16:27;;;;;;;78.35;14.30;;;;;;;6.35;65.17;100917.97;10334386;28;20050;-80
2022/04/28 01:21:30;;;;;;;55.25;12.88;;;;;;;6.26;65.35;100931.22;10327698;28;20407;-80
2022/04/28 01:26:33;;;;;;;234.10;17.20;;;;;;;6.24;65.38;100932.97;10324385;28;20906;-80
2022/04/28 01:31:35;;;;;;;197.60;16.90;;;;;;;6.15;65.40;100922.81;10333508;28;20077;-80
2022/04/28 01:36:37;;;;;;;114.65;13.15;;;;;;;6.16;65.26;100929.72;10339360;28;20109;-80
2022/04/28 01:41:38;;;;;;;132.32;11.77;;;;;;;6.10;65.50;100929.84;10323641;28;20046;-80
2022/04/28 01:46:40;;;;;;;290.70;20.55;;;;;;;5.86;65.26;100932.25;10328781;28;20057;-80
2022/04/28 01:57:02;;;;;;;45.63;10.57;;;;;;;5.71;65.68;100936.06;10346784;28;20135;-80
2022/04/28 02:02:04;;;;;;;312.38;18.52;;;;;;;5.73;66.04;100936.00;10331281;28;20557;-80
2022/04/28 02:07:09;;;;;;;421.85;25.00;;;;;;;5.53;65.52;100936.50;10337771;28;20057;-80
2022/04/28 02:12:13;;;;;;;169.63;16.17;;;;;;;5.51;66.00;100939.09;10323474;28;20529;-80
2022/04/28 02:17:19;;;;;;;194.90;13.07;;;;;;;5.63;66.35;100943.16;10337315;28;20186;-80
2022/04/28 02:22:21;;;;;;;250.90;15.38;;;;;;;5.70;66.07;100943.84;10347549;28;20050;-80
2022/04/28 02:27:24;;;;;;;725.58;30.98;;;;;;;5.54;65.95;100949.44;10331629;28;20086;-80
2022/04/28 02:33:08;;;;;;;743.90;37.60;;;;;;;5.40;65.79;100948.03;10327110;28;20062;-80
2022/04/28 02:37:48;;;;;;;491.60;22.27;;;;;;;5.27;66.24;100947.44;10333661;28;20291;-80
2022/04/28 02:42:50;;;;;;;504.55;24.13;;;;;;;5.31;66.44;100951.66;10331057;28;20136;-80
2022/04/28 02:47:52;;;;;;;194.90;13.70;;;;;;;5.49;66.58;100950.44;10334133;28;20574;-80
2022/04/28 02:52:53;;;;;;;61.60;9.55;;;;;;;5.57;66.09;100947.66;10332678;28;20097;-79
2022/04/28 02:57:56;;;;;;;174.18;14.18;;;;;;;5.60;66.08;100958.81;10330406;28;20104;-80
2022/04/28 03:03:01;;;;;;;261.38;13.70;;;;;;;5.60;66.02;100947.56;10322540;28;20053;-80
2022/04/28 03:13:23;;;;;;;89.80;10.40;;;;;;;5.73;65.95;100955.03;10324382;28;20101;-80
2022/04/28 03:18:25;;;;;;;112.85;8.90;;;;;;;5.71;65.72;100949.03;10312427;28;20470;-80
2022/04/28 03:23:27;;;;;;;149.90;12.60;;;;;;;5.73;65.83;100946.41;10318541;28;20073;-80
2022/04/28 03:28:29;;;;;;;103.07;9.45;;;;;;;5.72;65.67;100957.66;10323924;28;20164;-80
2022/04/28 03:33:31;;;;;;;111.22;8.75;;;;;;;5.64;65.52;100954.38;10328333;28;20053;-80
2022/04/28 03:38:33;;;;;;;172.15;12.73;;;;;;;5.53;65.60;100952.88;10316755;28;20507;-80
2022/04/28 03:43:35;;;;;;;37.03;8.38;;;;;;;5.45;65.68;100959.16;10331676;28;20120;-80
2022/04/28 03:48:37;;;;;;;137.23;12.30;;;;;;;5.44;65.66;100962.63;10329684;28;20129;-79
2022/04/28 03:53:39;;;;;;;374.50;20.33;;;;;;;5.31;65.75;100963.81;10330560;28;20114;-80
2022/04/28 03:58:41;;;;;;;173.38;12.88;;;;;;;5.29;65.93;100975.94;10329350;28;20062;-80
2022/04/28 04:03:43;;;;;;;292.80;17.33;;;;;;;5.29;65.50;100970.75;10321161;28;20050;-79
2022/04/28 04:08:45;;;;;;;77.88;9.65;;;;;;;5.20;65.81;100978.72;10331991;28;20063;-80
2022/04/28 04:13:47;;;;;;;120.00;10.43;;;;;;;5.16;66.05;100969.31;10310735;28;20124;-80
2022/04/28 04:18:49;;;;;;;152.50;10.88;;;;;;;5.24;66.06;100981.25;10323060;28;20100;-80
2022/04/28 04:23:51;;;;;;;263.50;12.85;;;;;;;5.30;66.06;100988.88;10340723;28;20464;-80
2022/04/28 04:28:53;;;;;;;348.10;13.70;;;;;;;5.31;66.14;100987.16;10315370;28;20504;-80
2022/04/28 04:33:55;;;;;;;329.35;13.50;;;;;;;5.34;66.01;100982.75;10318894;28;20089;-80
2022/04/28 04:38:56;;;;;;;336.60;14.15;;;;;;;5.30;66.14;100996.66;10326108;28;20408;-80
2022/04/28 04:43:58;;;;;;;355.50;15.18;;;;;;;5.28;66.09;101002.78;10310353;28;20050;-80
2022/04/28 04:49:00;;;;;;;785.13;29.08;;;;;;;5.38;65.95;101002.53;10333679;28;20093;-80
2022/04/28 04:54:02;;;;;;;351.35;14.75;;;;;;;5.46;66.03;101007.56;10320590;28;20427;-80
2022/04/28 04:59:03;;;;;;;335.30;14.80;;;;;;;5.57;65.65;101009.91;10338133;28;20050;-80
2022/04/28 05:04:06;;;;;;;514.70;16.58;;;;;;;5.69;65.43;101023.47;10324847;28;20542;-80
2022/04/28 05:09:08;;;;;;;345.20;14.38;;;;;;;5.80;65.39;101018.88;10326453;28;20152;-80
2022/04/28 05:14:10;;;;;;;538.53;16.17;;;;;;;5.97;64.87;101028.88;10326675;28;20520;-81
2022/04/28 05:19:11;;;;;;;193.98;10.55;;;;;;;6.24;64.29;101017.84;10321636;28;20514;-80
2022/04/28 05:24:13;;;;;;;141.60;9.77;;;;;;;6.54;63.70;101027.47;10327543;28;20058;-80
2022/04/28 05:29:15;;;;;;;169.93;10.10;;;;;;;6.75;62.98;101032.13;10326235;28;20554;-80
2022/04/28 05:34:17;;;;;;;162.63;11.07;;;;;;;7.06;62.87;101042.56;10325340;28;20558;-80
2022/04/28 05:39:19;;;;;;;320.83;14.40;;;;;;;7.37;62.25;101040.75;10325421;28;20470;-80
2022/04/28 05:49:42;;;;;;;217.27;12.27;;;;;;;7.76;61.14;101055.22;10343263;28;20046;-80
2022/04/28 05:54:44;;;;;;;71.18;8.88;;;;;;;7.96;60.77;101051.97;10329795;28;20104;-81
2022/04/28 05:59:46;;;;;;;61.53;8.95;;;;;;;8.37;60.13;101053.28;10322726;28;20054;-81
2022/04/28 06:04:47;;;;;;;15.73;7.93;;;;;;;8.53;59.64;101062.31;10330077;28;20081;-81
2022/04/28 06:09:49;;;;;;;13.68;8.13;;;;;;;8.59;59.65;101065.56;10325595;28;20129;-81
2022/04/28 06:14:51;;;;;;;15.65;9.05;;;;;;;8.60;59.51;101058.59;10338955;28;20078;-79
2022/04/28 06:19:52;;;;;;;12.00;10.13;;;;;;;8.44;59.70;101068.69;10343054;28;20148;-79
2022/04/28 06:25:14;;;;;;;11.77;9.07;;;;;;;8.39;60.52;101077.56;10329502;28;20064;-79
2022/04/28 06:30:17;;;;;;;10.68;9.27;;;;;;;8.61;60.32;101074.19;10323745;28;21039;-79
2022/04/28 06:35:19;;;;;;;9.20;8.10;;;;;;;8.92;59.80;101065.31;10343432;28;20471;-79
2022/04/28 06:40:20;;;;;;;10.18;9.10;;;;;;;9.03;59.90;101071.88;10315380;28;20062;-79
2022/04/28 06:45:23;;;;;;;14.27;12.30;;;;;;;9.17;60.04;101069.63;10325093;28;20054;-79
2022/04/28 06:50:26;;;;;;;13.05;11.13;;;;;;;9.10;60.42;101075.97;10334411;28;20508;-80
2022/04/28 06:55:28;;;;;;;15.13;11.95;;;;;;;9.21;60.44;101072.97;10329359;28;20498;-80
2022/04/28 07:00:29;;;;;;;15.75;12.20;;;;;;;9.33;60.35;101076.00;10322173;28;20397;-80
2022/04/28 07:05:33;;;;;;;14.45;12.52;;;;;;;9.30;61.17;101073.47;10336413;28;20139;-80
2022/04/28 07:10:37;;;;;;;14.68;11.45;;;;;;;9.33;61.75;101080.34;10319166;28;20396;-80
2022/04/28 07:15:39;;;;;;;13.57;11.70;;;;;;;9.45;61.66;101091.22;10328192;28;20085;-80
2022/04/28 07:20:41;;;;;;;16.23;13.93;;;;;;;9.74;61.09;101081.47;10326954;28;20148;-80
2022/04/28 07:25:43;;;;;;;18.88;14.18;;;;;;;9.93;60.63;101091.13;10327365;28;20085;-80
2022/04/28 07:30:46;;;;;;;17.63;12.77;;;;;;;10.38;60.64;101091.06;10336220;28;20136;-80
2022/04/28 07:35:47;;;;;;;18.02;13.35;;;;;;;11.54;58.55;101087.84;10323212;28;20054;-80
2022/04/28 07:40:51;;;;;;;55.97;15.20;;;;;;;12.97;53.94;101088.69;10321542;28;20100;-80
2022/04/28 07:45:53;;;;;;;19.20;13.57;;;;;;;13.85;52.22;101084.84;10314508;28;20431;-80
2022/04/28 07:50:55;;;;;;;18.88;11.65;;;;;;;14.92;48.49;101080.47;10327333;28;20260;-80
2022/04/28 07:56:17;;;;;;;15.95;12.55;;;;;;;15.26;46.94;101085.38;10320265;28;20116;-80
2022/04/28 08:01:19;;;;;;;21.05;12.70;;;;;;;15.40;47.06;101083.59;10313608;28;20100;-80
2022/04/28 08:06:21;;;;;;;21.50;12.63;;;;;;;15.42;45.72;101088.78;10327295;28;20105;-80
2022/04/28 08:11:23;;;;;;;18.65;12.30;;;;;;;15.83;44.31;101081.81;10327427;28;20321;-80
2022/04/28 08:16:25;;;;;;;14.48;11.88;;;;;;;16.31;43.83;101083.06;10322691;28;20137;-80
2022/04/28 08:21:26;;;;;;;18.42;12.07;;;;;;;16.87;42.49;101088.09;10315878;28;20050;-80
2022/04/28 08:26:28;;;;;;;15.05;11.50;;;;;;;16.96;42.24;101092.78;10326098;28;20121;-80
2022/04/28 08:31:31;;;;;;;17.75;10.85;;;;;;;17.24;41.42;101085.63;10315196;28;20058;-81
2022/04/28 08:36:33;;;;;;;16.98;11.63;;;;;;;17.33;40.45;101087.59;10314023;28;20141;-80
2022/04/28 08:41:41;;;;;;;17.40;11.77;;;;;;;17.22;40.64;101093.63;10323652;28;20110;-80
2022/04/28 08:46:53;;;;;;;15.00;11.45;;;;;;;17.44;40.56;101091.25;10325179;28;20388;-80
2022/04/28 08:51:58;;;;;;;14.65;10.73;;;;;;;17.77;40.03;101085.38;10323423;28;20072;-80
2022/04/28 08:57:00;;;;;;;16.20;10.63;;;;;;;18.02;39.40;101082.63;10310732;28;20085;-81
2022/04/28 09:02:02;;;;;;;15.32;11.18;;;;;;;18.25;38.44;101076.53;10331477;28;20145;-80
2022/04/28 09:07:07;;;;;;;15.90;10.68;;;;;;;18.16;38.79;101086.91;10322781;28;20062;-80
2022/04/28 09:12:09;;;;;;;14.15;10.20;;;;;;;18.61;37.77;101083.56;10328471;28;20424;-81
2022/04/28 09:17:11;;;;;;;19.85;9.93;;;;;;;18.92;37.84;101082.94;10325542;28;20090;-80
2022/04/28 09:22:13;;;;;;;13.05;9.38;;;;;;;19.28;37.54;101068.66;10332377;28;20113;-81
2022/04/28 09:27:15;;;;;;;17.45;9.40;;;;;;;19.42;36.08;101068.44;10321052;28;20049;-81
2022/04/28 09:32:21;;;;;;;12.25;8.60;;;;;;;19.63;35.59;101073.84;10320129;28;20097;-80
2022/04/28 09:37:43;;;;;;;11.05;8.20;;;;;;;19.59;35.00;101072.41;10329307;28;20064;-80
2022/04/28 09:42:44;;;;;;;12.43;8.20;;;;;;;19.09;35.49;101063.97;10311690;28;20149;-80
2022/04/28 09:47:56;;;;;;;8.65;6.47;;;;;;;19.13;35.35;101064.56;10319574;28;20054;-80
2022/04/28 09:53:03;;;;;;;8.98;6.22;;;;;;;19.79;34.15;101066.34;10331971;28;20046;-81
2022/04/28 09:58:09;;;;;;;8.60;5.60;;;;;;;19.63;34.69;101058.78;10337584;28;20509;-80
2022/04/28 10:03:11;;;;;;;10.07;6.90;;;;;;;19.19;34.27;101057.00;10338847;28;20057;-80
2022/04/28 10:08:14;;;;;;;9.82;6.70;;;;;;;19.09;34.59;101053.38;10325025;28;20058;-81
2022/04/28 10:13:17;;;;;;;8.23;5.43;;;;;;;19.36;33.44;101047.69;10330574;28;20137;-81
2022/04/28 10:18:24;;;;;;;10.00;5.68;;;;;;;19.70;34.36;101043.22;10326983;28;20579;-81
2022/04/28 10:34:21;;;;;;;5.95;2.90;;;;;;;19.77;30.62;101036.44;10314192;28;20144;-80
2022/04/28 10:39:38;;;;;;;8.32;3.70;;;;;;;19.91;29.55;101026.44;10321034;28;20065;-81
2022/04/28 10:44:57;;;;;;;5.10;3.00;;;;;;;19.93;31.46;101023.66;10341392;28;20050;-81
2022/04/28 10:49:59;;;;;;;4.53;2.97;;;;;;;19.57;32.19;101021.28;10323350;28;20112;-81
2022/04/28 10:55:02;;;;;;;5.82;2.60;;;;;;;19.70;30.90;101022.00;10334302;28;20115;-81
2022/04/28 11:00:05;;;;;;;6.00;3.05;;;;;;;20.03;28.24;101011.31;10323765;28;20106;-81
2022/04/28 11:05:26;;;;;;;4.68;2.80;;;;;;;20.43;26.96;101011.50;10337582;28;20050;-81
2022/04/28 11:10:28;;;;;;;4.22;2.60;;;;;;;21.00;26.99;101003.94;10311938;28;20121;-81
2022/04/28 11:15:32;;;;;;;4.40;2.92;;;;;;;21.24;27.89;101003.63;10306381;28;20058;-81
2022/04/28 11:20:34;;;;;;;6.50;2.97;;;;;;;20.84;26.34;101012.41;10334382;28;20080;-81
2022/04/28 11:25:36;;;;;;;5.43;2.58;;;;;;;21.02;27.57;100997.53;10328947;28;20073;-81
2022/04/28 11:30:42;;;;;;;4.32;2.50;;;;;;;21.80;23.95;100999.50;10326446;28;20177;-80
2022/04/28 11:35:44;;;;;;;6.15;2.60;;;;;;;21.74;24.68;100989.38;10323500;28;20062;-80
2022/04/28 11:40:57;;;;;;;4.45;2.20;;;;;;;21.19;24.45;100989.88;10331630;28;20539;-81
2022/04/28 11:45:59;;;;;;;5.45;2.80;;;;;;;21.03;25.32;100996.53;10324376;28;20057;-81
2022/04/28 11:51:04;;;;;;;3.70;2.25;;;;;;;20.81;25.39;100991.38;10325951;28;20058;-81
2022/04/28 11:56:19;;;;;;;5.55;2.60;;;;;;;20.39;25.90;100988.81;10333672;28;20058;-81
2022/04/28 12:01:21;;;;;;;6.10;2.45;;;;;;;20.13;28.25;100991.81;10318445;28;20799;-81
2022/04/28 12:06:25;;;;;;;5.30;2.53;;;;;;;20.43;26.85;100987.59;10325400;28;20049;-81
2022/04/28 12:22:13;;;;;;;3.97;2.50;;;;;;;20.13;27.17;100977.72;10321268;28;20571;-81
2022/04/28 12:27:15;;;;;;;4.78;2.50;;;;;;;20.56;26.53;100975.78;10327924;28;20073;-81
2022/04/28 12:32:19;;;;;;;6.00;2.60;;;;;;;20.31;26.14;100970.88;10326108;28;20327;-81
2022/04/28 12:37:41;;;;;;;5.23;2.60;;;;;;;20.64;26.72;100970.69;10323792;28;20094;-82
2022/04/28 12:42:47;;;;;;;5.28;2.72;;;;;;;21.25;24.99;100965.41;10343726;28;20104;-81
2022/04/28 12:47:50;;;;;;;5.20;2.40;;;;;;;21.14;25.52;100957.50;10336447;28;20143;-82
2022/04/28 12:52:52;;;;;;;5.30;2.60;;;;;;;20.97;25.20;100959.81;10312630;28;20093;-82
2022/04/28 12:57:54;;;;;;;4.40;2.50;;;;;;;20.94;26.01;100968.09;10338223;28;20050;-82
2022/04/28 13:02:56;;;;;;;5.68;3.22;;;;;;;20.83;25.65;100961.97;10322773;28;20182;-81
2022/04/28 13:07:58;;;;;;;7.30;3.08;;;;;;;20.64;26.67;100949.44;10334685;28;20062;-82
2022/04/28 13:13:01;;;;;;;5.63;2.75;;;;;;;20.87;27.54;100945.63;10328146;28;20058;-82
2022/04/28 13:18:03;;;;;;;4.95;2.70;;;;;;;20.83;26.92;100936.25;10334766;28;20483;-82
2022/04/28 13:23:05;;;;;;;5.57;2.70;;;;;;;20.51;28.93;100939.94;10333119;28;20335;-81
2022/04/28 13:28:07;;;;;;;5.80;2.90;;;;;;;20.02;30.03;100932.63;10314399;28;20134;-82
2022/04/28 13:33:10;;;;;;;6.00;2.88;;;;;;;19.77;29.85;100940.88;10323957;28;20046;-81
2022/04/28 13:38:12;;;;;;;7.15;2.90;;;;;;;20.05;28.84;100932.38;10317520;28;20058;-82
2022/04/28 13:43:14;;;;;;;5.45;3.00;;;;;;;20.37;27.67;100924.34;10324972;28;20089;-81
2022/04/28 13:48:19;;;;;;;5.45;2.63;;;;;;;20.75;27.18;100914.81;10324253;28;20050;-81
2022/04/28 13:53:27;;;;;;;6.47;2.92;;;;;;;20.67;27.05;100906.66;10329460;28;20096;-82
2022/04/28 13:58:30;;;;;;;4.32;2.45;;;;;;;20.50;27.47;100907.22;10311669;28;20067;-82
2022/04/28 14:03:33;;;;;;;8.27;2.85;;;;;;;20.87;26.97;100899.59;10329796;28;20500;-81
2022/04/28 14:08:36;;;;;;;5.75;2.80;;;;;;;20.93;26.55;100893.72;10331841;28;20050;-82
2022/04/28 14:13:38;;;;;;;6.15;2.70;;;;;;;21.07;25.95;100894.22;10321990;28;20089;-81
2022/04/28 14:18:40;;;;;;;6.65;2.67;;;;;;;21.16;26.26;100881.91;10333850;28;20456;-82
2022/04/28 14:23:42;;;;;;;5.38;2.60;;;;;;;20.91;26.04;100891.22;10324834;28;20504;-81
2022/04/28 14:28:45;;;;;;;7.10;2.35;;;;;;;20.87;27.54;100884.47;10336287;28;20057;-81
2022/04/28 14:33:46;;;;;;;5.47;2.60;;;;;;;20.74;27.37;100885.69;10286627;28;1191614;-81
2022/04/28 14:38:48;;;;;;;4.75;2.40;;;;;;;20.57;27.24;100886.28;10329583;28;20055;-81
2022/04/28 14:43:50;;;;;;;5.82;2.53;;;;;;;20.36;29.00;100893.44;10320114;28;20505;-81
2022/04/28 14:54:12;;;;;;;5.65;2.40;;;;;;;20.39;27.95;100882.53;10345511;28;20090;-81
2022/04/28 14:59:15;;;;;;;4.20;2.30;;;;;;;20.98;28.15;100892.38;10342425;28;20053;-81
2022/04/28 15:04:17;;;;;;;7.18;2.20;;;;;;;21.29;27.29;100873.69;10316267;28;20134;-81
2022/04/28 15:09:19;;;;;;;5.80;2.50;;;;;;;21.30;26.72;100876.19;10328755;28;20154;-81
2022/04/28 15:14:20;;;;;;;4.30;2.30;;;;;;;21.40;27.03;100878.91;10325316;28;20054;-82
2022/04/28 15:19:23;;;;;;;4.75;2.55;;;;;;;21.49;27.03;100878.94;10329142;28;20149;-81
2022/04/28 15:24:25;;;;;;;4.53;2.45;;;;;;;21.44;27.41;100873.19;10330568;28;20054;-82
2022/04/28 15:29:27;;;;;;;5.85;2.90;;;;;;;21.52;26.22;100864.50;10325240;28;20452;-81
2022/04/28 15:34:29;;;;;;;6.47;2.42;;;;;;;21.46;26.22;100875.69;10314990;28;20062;-82
2022/04/28 15:39:32;;;;;;;7.88;2.38;;;;;;;21.41;26.11;100867.28;10318192;28;20562;-81
2022/04/28 15:44:34;;;;;;;7.63;2.38;;;;;;;21.19;26.68;100875.50;10321290;28;20086;-81
2022/04/28 15:49:36;;;;;;;4.70;2.40;;;;;;;21.03;26.22;100874.19;10326561;28;20058;-81
2022/04/28 15:54:38;;;;;;;3.67;2.20;;;;;;;20.81;27.02;100869.06;10328580;28;20500;-82
2022/04/28 15:59:41;;;;;;;6.47;2.53;;;;;;;20.91;27.14;100869.09;10334626;28;20072;-82
2022/04/28 16:04:42;;;;;;;4.10;2.40;;;;;;;21.05;27.51;100863.41;10333762;28;20136;-81
2022/04/28 16:09:49;;;;;;;4.32;2.58;;;;;;;21.20;27.93;100855.88;10332127;28;20198;-81
2022/04/28 16:14:51;;;;;;;7.43;2.60;;;;;;;21.25;27.61;100861.63;10314283;28;20046;-81
2022/04/28 16:19:53;;;;;;;6.13;2.60;;;;;;;21.15;26.37;100858.13;10324172;28;20082;-81
2022/04/28 16:24:55;;;;;;;7.60;2.30;;;;;;;21.06;27.24;100855.31;10318010;28;20050;-81
2022/04/28 16:29:57;;;;;;;4.50;2.45;;;;;;;20.72;26.57;100858.41;10319928;28;20062;-81
2022/04/28 16:35:03;;;;;;;6.22;2.50;;;;;;;20.87;26.88;100851.72;10329367;28;20523;-81
2022/04/28 16:40:06;;;;;;;6.35;2.45;;;;;;;21.15;26.54;100853.63;10325307;28;20484;-81
2022/04/28 16:45:08;;;;;;;8.32;2.33;;;;;;;21.09;27.17;100851.50;10324347;28;20089;-82
2022/04/28 16:50:10;;;;;;;4.53;2.50;;;;;;;20.85;26.82;100859.84;10320737;28;20112;-81
2022/04/28 16:55:14;;;;;;;8.02;2.55;;;;;;;20.73;27.05;100852.94;10309869;28;20058;-82
2022/04/28 17:00:16;;;;;;;4.45;2.30;;;;;;;20.70;27.96;100850.53;10330069;28;20054;-82
2022/04/28 17:05:18;;;;;;;5.30;2.40;;;;;;;20.46;27.25;100841.19;10332790;28;20144;-81
2022/04/28 17:10:20;;;;;;;4.32;2.20;;;;;;;20.45;27.66;100850.13;10330966;28;20518;-81
2022/04/28 17:15:22;;;;;;;5.35;2.38;;;;;;;20.43;28.30;100852.94;10331233;28;20101;-81
2022/04/28 17:20:26;;;;;;;5.82;2.45;;;;;;;20.19;28.42;100861.16;10325946;28;20380;-81
2022/04/28 17:25:28;;;;;;;4.95;2.13;;;;;;;20.15;28.69;100858.91;10327683;28;20505;-82
2022/04/28 17:30:30;;;;;;;5.55;2.40;;;;;;;19.91;28.82;100858.34;10329195;28;20492;-81
2022/04/28 17:35:32;;;;;;;6.15;2.40;;;;;;;19.82;29.25;100861.75;10332496;28;20496;-81
2022/04/28 17:40:34;;;;;;;5.53;2.50;;;;;;;19.74;29.72;100862.38;10332487;28;20503;-82
2022/04/28 17:45:36;;;;;;;5.03;2.60;;;;;;;19.48;29.96;100869.81;10331078;28;20491;-81
2022/04/28 17:50:40;;;;;;;5.95;2.35;;;;;;;19.22;31.85;100873.75;10332498;28;20151;-81
2022/04/28 18:01:08;;;;;;;5.05;2.30;;;;;;;18.47;33.61;100893.00;10328440;28;20114;-82
2022/04/28 18:06:12;;;;;;;5.07;2.65;;;;;;;18.05;33.70;100897.13;10320164;28;20459;-82
2022/04/28 18:11:16;;;;;;;21.38;3.03;;;;;;;17.78;34.76;100888.59;10331899;28;20151;-81
2022/04/28 18:16:21;;;;;;;4.10;2.40;;;;;;;17.58;36.14;100900.66;10334171;28;20373;-81
2022/04/28 18:21:23;;;;;;;5.25;2.47;;;;;;;17.27;37.14;100898.50;10328796;28;20046;-81
2022/04/28 18:26:25;;;;;;;5.53;2.35;;;;;;;16.99;38.05;100909.38;10323478;28;20140;-81
2022/04/28 18:31:27;;;;;;;4.68;2.63;;;;;;;16.69;39.74;100919.47;10330272;28;20057;-81
2022/04/28 18:47:09;;;;;;;5.78;3.30;;;;;;;15.74;41.80;100944.38;10331503;28;19929;-81
2022/04/28 18:52:12;;;;;;;5.38;2.90;;;;;;;15.57;42.46;100958.63;10336981;28;20112;-81
2022/04/28 18:57:17;;;;;;;4.82;3.20;;;;;;;15.33;42.53;100966.28;10325917;28;20137;-81
2022/04/28 19:02:20;;;;;;;6.75;3.50;;;;;;;15.15;42.66;100982.41;10312143;28;20489;-81
2022/04/28 19:07:23;;;;;;;8.20;4.35;;;;;;;15.03;41.46;100981.38;10330693;28;20069;-81
2022/04/28 19:12:24;;;;;;;5.97;3.70;;;;;;;14.91;42.75;100986.56;10344214;28;20050;-81
2022/04/28 19:17:32;;;;;;;9.07;4.03;;;;;;;14.79;43.36;100996.06;10318822;28;20057;-82
2022/04/28 19:22:33;;;;;;;7.53;4.70;;;;;;;14.65;42.63;101003.09;10316613;28;20139;-81
2022/04/28 19:27:35;;;;;;;10.18;4.28;;;;;;;14.61;42.38;101001.56;10320612;28;20558;-80
2022/04/28 19:32:38;;;;;;;10.25;5.07;;;;;;;14.52;42.24;101006.44;10330528;28;20050;-81
2022/04/28 19:37:46;;;;;;;7.75;4.30;;;;;;;14.42;43.17;101010.53;10312627;28;20137;-81
2022/04/28 19:42:47;;;;;;;9.60;5.40;;;;;;;14.37;43.05;101004.66;10316896;28;20542;-81
2022/04/28 19:47:49;;;;;;;9.18;5.20;;;;;;;14.20;43.01;101001.31;10318731;28;20147;-81
2022/04/28 19:52:52;;;;;;;9.13;3.97;;;;;;;14.07;44.53;101005.59;10316683;28;20058;-81
2022/04/28 19:57:54;;;;;;;7.82;4.40;;;;;;;13.94;44.96;101007.22;10339984;28;20485;-81
2022/04/28 20:02:56;;;;;;;8.77;4.75;;;;;;;13.81;45.14;101009.69;10339929;28;20058;-80
2022/04/28 20:07:58;;;;;;;7.63;4.93;;;;;;;13.62;45.11;101007.25;10315160;28;20050;-81
2022/04/28 20:13:00;;;;;;;8.38;4.88;;;;;;;13.55;44.87;101020.81;10320569;28;20053;-81
2022/04/28 20:18:03;;;;;;;15.82;6.25;;;;;;;13.60;43.00;101019.63;10340045;28;20554;-81
2022/04/28 20:23:05;;;;;;;10.43;5.90;;;;;;;13.69;43.53;101020.91;10333312;28;20400;-80
2022/04/28 20:28:08;;;;;;;9.43;4.95;;;;;;;13.50;45.48;101031.56;10320693;28;20065;-80
2022/04/28 20:33:10;;;;;;;9.10;4.90;;;;;;;13.46;45.32;101034.44;10320832;28;20049;-80
2022/04/28 20:38:13;;;;;;;8.40;5.35;;;;;;;13.24;46.09;101039.13;10326388;28;20093;-80
2022/04/28 20:43:16;;;;;;;12.35;5.65;;;;;;;13.15;45.86;101039.63;10324940;28;20508;-80
2022/04/28 20:48:18;;;;;;;10.90;5.65;;;;;;;13.17;46.11;101037.78;10320159;28;20618;-80
2022/04/28 20:53:21;;;;;;;8.63;4.75;;;;;;;13.11;46.65;101043.34;10322499;28;20058;-80
2022/04/28 20:58:23;;;;;;;8.77;5.25;;;;;;;12.74;47.61;101042.59;10328443;28;20494;-80
2022/04/28 21:03:24;;;;;;;10.05;5.03;;;;;;;12.68;47.94;101044.72;10331653;28;20089;-80
2022/04/28 21:08:27;;;;;;;11.07;5.88;;;;;;;12.62;47.98;101063.41;10329621;28;20058;-80
2022/04/28 21:13:29;;;;;;;9.43;5.22;;;;;;;12.49;48.49;101062.28;10333864;28;20670;-80
2022/04/28 21:18:31;;;;;;;12.68;5.90;;;;;;;12.29;49.43;101054.56;10318146;28;21058;-80
2022/04/28 21:23:33;;;;;;;7.72;5.57;;;;;;;12.26;49.26;101063.38;10334270;28;20058;-80
2022/04/28 21:28:36;;;;;;;13.20;5.82;;;;;;;12.29;49.12;101059.81;10339539;28;20093;-80
2022/04/28 21:33:38;;;;;;;9.88;5.70;;;;;;;12.24;49.30;101070.47;10334964;28;20085;-80
2022/04/28 21:38:40;;;;;;;8.52;5.95;;;;;;;12.24;48.97;101075.72;10329730;28;20467;-80
2022/04/28 21:43:42;;;;;;;11.50;7.03;;;;;;;12.17;49.41;101076.09;10336408;28;20139;-80
2022/04/28 21:48:44;;;;;;;14.70;6.65;;;;;;;12.12;49.21;101086.81;10337124;28;20492;-81
2022/04/28 21:53:54;;;;;;;;;;;;;;;11.76;49.90;101094.66;10321686;28;20783;-81
2022/04/28 21:58:56;;;;;;;10.95;7.65;;;;;;;11.91;49.34;101095.69;10327942;28;19933;-80
2022/04/28 22:14:39;;;;;;;14.18;8.15;;;;;;;11.79;50.30;101091.88;10336594;28;20053;-76
2022/04/28 22:19:42;;;;;;;11.48;7.82;;;;;;;11.67;50.85;101102.06;10331254;28;20054;-76
2022/04/28 22:24:44;;;;;;;12.52;8.05;;;;;;;11.55;51.29;101100.00;10326492;28;20555;-76
2022/04/28 22:35:24;;;;;;;14.60;7.03;;;;;;;11.18;52.49;101106.03;10313808;28;20050;-76
2022/04/28 22:40:27;;;;;;;13.40;7.00;;;;;;;10.93;53.48;101107.97;10329635;28;20578;-77
2022/04/28 22:45:28;;;;;;;13.73;7.72;;;;;;;10.86;53.60;101099.53;10325487;28;20133;-76
2022/04/28 22:50:30;;;;;;;9.45;7.00;;;;;;;10.91;53.72;101099.34;10326186;28;20050;-76
2022/04/28 22:55:32;;;;;;;11.13;7.70;;;;;;;10.89;53.70;101106.41;10327946;28;21401;-76
2022/04/28 23:00:34;;;;;;;11.43;7.00;;;;;;;10.77;54.13;101110.38;10318604;28;20132;-76
2022/04/28 23:05:36;;;;;;;9.95;7.75;;;;;;;10.56;54.21;101105.19;10311900;28;20108;-76
2022/04/28 23:10:38;;;;;;;11.32;7.18;;;;;;;10.40;55.07;101110.16;10318084;28;20491;-76
2022/04/28 23:15:42;;;;;;;12.52;8.30;;;;;;;10.28;55.42;101097.59;10309926;28;20097;-76
2022/04/28 23:20:44;;;;;;;9.88;7.75;;;;;;;10.11;55.97;101086.97;10308903;28;20058;-77
2022/04/28 23:25:46;;;;;;;10.80;7.63;;;;;;;9.87;56.41;101098.38;10307687;28;20058;-77
2022/04/28 23:30:48;;;;;;;11.43;8.10;;;;;;;9.71;57.14;101105.94;10314650;28;20976;-77
2022/04/28 23:41:10;;;;;;;10.95;7.43;;;;;;;9.68;57.36;101105.19;10325936;28;20054;-76
2022/04/28 23:46:12;;;;;;;11.10;7.70;;;;;;;9.33;57.90;101107.31;10316565;28;20100;-76
2022/04/28 23:51:14;;;;;;;12.65;7.22;;;;;;;9.38;58.37;101100.16;10323885;28;20054;-76
2022/04/28 23:56:15;;;;;;;10.77;7.35;;;;;;;9.35;58.48;101094.19;10328357;28;20306;-77
